Arco Butte County Airport


Codes: KAOC/
Name: Arco Butte County Airport
City: Arco
Country: United States
Elevation: 5332 ft.

Photos at Arco Butte County Airport


   Photos courtesy of SpottingLog. You can add your own sightings and photos by signing up for a free trial today.



No photos found.

Weather at Arco Butte County Airport


Time (UTC)DescriptionTempratureWindCloud coverageVisibilityPressureHumidity
25-Jun-2024 15:00Clear Sky18°C4 mph, SE0%10000m1012hPa27%
25-Jun-2024 18:00Clear Sky24°C16 mph, SW0%10000m1011hPa20%
25-Jun-2024 21:00Clear Sky31°C16 mph, SW0%10000m1010hPa12%
26-Jun-2024 00:00Scattered Clouds29°C18 mph, SW34%10000m1009hPa12%
26-Jun-2024 03:00Overcast Clouds23°C11 mph, W92%10000m1011hPa23%
26-Jun-2024 06:00Overcast Clouds21°C7 mph, NW93%10000m1012hPa19%
26-Jun-2024 09:00Overcast Clouds21°C4 mph, W93%10000m1012hPa17%
26-Jun-2024 12:00Overcast Clouds21°C9 mph, SW96%10000m1013hPa18%
26-Jun-2024 15:00Overcast Clouds24°C4 mph, SW100%10000m1011hPa33%
26-Jun-2024 18:00Overcast Clouds26°C13 mph, SW95%10000m1010hPa30%
26-Jun-2024 21:00Broken Clouds28°C18 mph, SW62%10000m1007hPa27%
27-Jun-2024 00:00Light Rain23°C7 mph, NW64%10000m1007hPa45%
27-Jun-2024 03:00Scattered Clouds20°C7 mph, SW34%10000m1007hPa55%
27-Jun-2024 06:00Scattered Clouds17°C4 mph, W37%10000m1007hPa62%
27-Jun-2024 09:00Few Clouds16°C7 mph, S20%10000m1006hPa65%
27-Jun-2024 12:00Few Clouds13°C7 mph, SW17%10000m1007hPa79%
27-Jun-2024 15:00Clear Sky21°C18 mph, SW2%10000m1006hPa27%
27-Jun-2024 18:00Clear Sky23°C25 mph, SW2%10000m1005hPa23%
27-Jun-2024 21:00Broken Clouds23°C29 mph, SW51%10000m1004hPa19%
28-Jun-2024 00:00Broken Clouds22°C22 mph, W70%10000m1004hPa16%
28-Jun-2024 03:00Clear Sky16°C9 mph, NW7%10000m1006hPa26%
28-Jun-2024 06:00Clear Sky11°C7 mph, NW6%10000m1009hPa35%
28-Jun-2024 09:00Clear Sky9°C7 mph, N6%10000m1010hPa39%
28-Jun-2024 12:00Clear Sky7°C4 mph, N3%10000m1012hPa47%
28-Jun-2024 15:00Clear Sky15°C4 mph, E0%10000m1012hPa32%
28-Jun-2024 18:00Clear Sky19°C7 mph, SE0%10000m1011hPa25%
28-Jun-2024 21:00Clear Sky23°C4 mph, S2%10000m1009hPa19%
29-Jun-2024 00:00Clear Sky24°C9 mph, SW3%10000m1007hPa17%
29-Jun-2024 03:00Overcast Clouds19°C9 mph, SW88%10000m1009hPa21%
29-Jun-2024 06:00Broken Clouds13°C2 mph, SW61%10000m1011hPa26%
29-Jun-2024 09:00Scattered Clouds12°C0 mph, NE25%10000m1011hPa30%
29-Jun-2024 12:00Broken Clouds10°C2 mph, E54%10000m1013hPa40%
29-Jun-2024 15:00Few Clouds19°C4 mph, NE19%10000m1012hPa26%
29-Jun-2024 18:00Few Clouds24°C7 mph, SE15%10000m1009hPa22%
29-Jun-2024 21:00Clear Sky28°C7 mph, S10%10000m1007hPa16%
30-Jun-2024 00:00Clear Sky30°C9 mph, SW9%10000m1004hPa15%
30-Jun-2024 03:00Broken Clouds22°C2 mph, NE60%10000m1003hPa28%
30-Jun-2024 06:00Broken Clouds21°C4 mph, NE78%10000m1004hPa28%
30-Jun-2024 09:00Overcast Clouds19°C4 mph, N96%10000m1006hPa32%
30-Jun-2024 12:00Overcast Clouds18°C0 mph, N98%10000m1007hPa40%